메인 페이지
METAR-TAF:

METAR-TAF

공항 :

브리즈번 공항

브리즈번, 오스트레일리아

위도: 27-23S, 경도: 153-06E, 고도: 4m

현재 날씨관측

예보는 41분 전, 16:00시(UTC)에 발표되었습니다.
8kt
온도 12°C
습도 88%
기압 1015 hPa
시정 10km 이상
1500m 미만 상공 구름 및 적란운 없음

METAR: YBBN 151600Z 35008KT CAVOK 12/10 Q1015 NOSIG

시각: 02:41 (16:41 UTC)

예보

예보는 5 시간 39분 전, 11:02시(UTC)에 발표되었습니다.
예보 대상 시간: 15일 12시부터 16일 18시까지 (UTC)
북북서7kt
시정 10km 이상
1500m 미만 상공 구름 및 적란운 없음
15일 1700시부터 (UTC)
여러 방향의 바람 3kt
시정 10km 이상
낮은 안개, 연무
15일 2100시부터 (UTC)
북서6kt
시정 10km 이상
1500m 미만 상공 구름 및 적란운 없음
16일 0200시부터 (UTC)
북북동12kt
시정 10km 이상
1500m 미만 상공 구름 및 적란운 없음
16일 1000시부터 (UTC)
북서5kt
시정 10km 이상
1500m 미만 상공 구름 및 적란운 없음
16일 1200시부터 (UTC)
5kt
시정 10km 이상
1500m 미만 상공 구름 및 적란운 없음

TAF: YBBN 151102Z 1512/1618 33007KT CAVOK FM151700 VRB03KT 9999 MIFG HZ NSC FM152100 32006KT CAVOK FM160200 02012KT CAVOK FM161000 32005KT CAVOK FM161200 26005KT CAVOK

4,000개 이상의 공항 관측 자료 및 예보 (METAR 및 TAF 보고).

지도상에서 검색 가능한 기상관측소가 노란 점과 빨간 점으로 표시되어 있습니다.

기상관측소 명을 보려면 표시 위로 마우스를 이동하세요.

날씨 관측과 예보를 보려면 클릭하세요.

지도 변경 : 확대하려면 엑스 표시가 있는 녹색 버튼, 축소하려면 빼기 표시가 있는 녹색 버튼, 다음 페이지의 지도를 보려면 녹색 화살표를 클릭하세요.


METAR-TAF: